MSC Leanne — 3EXH3 — position and weather

sailwx.info

Track history (hours):
 
Tides and Currents Weather Stations Pressure Air Temp Water Temp Dewpoint Dewpoint Depression Visibility Wind Speed Wind Dir Waves Ship Positions

MSC Leanne

Last reported at 2014-Aug-19 11:10 UTC. Time now 2014-Aug-22 03:56 UTC.
Position N 31°25' W 117°24'.

Length 294 m; draft 11.7 m.

Type: Ship (hazmat cat A). MMSI: 357723000.

Date/timePositionNaut miles runAvg speedWind from/ knotsBaromVisibWave heightAir tempDewpointWater temp
2014-Aug-19 11:10N 31°25' W 117°24'1016.7
2014-Aug-19 10:33N 31°35' W 117°27'1816.7
2014-Aug-19 09:30N 31°52' W 117°33'1616.9
2014-Aug-19 08:33N 32°07' W 117°38'1716.7
2014-Aug-19 07:33N 32°23' W 117°44'1716.9
2014-Aug-19 06:33N 32°40' W 117°46'1716.7
2014-Aug-19 05:33N 32°56' W 117°49'1413.6
2014-Aug-19 04:33N 33°08' W 117°57'1110.6
2014-Aug-19 03:33N 33°16' W 118°04'1110.8
2014-Aug-19 02:33N 33°26' W 118°09'1110.5
2014-Aug-19 01:33N 33°37' W 118°13'8 8.4
2014-Aug-19 00:33N 33°45' W 118°13'1 1.3
2014-Aug-18 23:27N 33°46' W 118°14'0 0.0
2014-Aug-18 22:30N 33°46' W 118°14'0 0.0
2014-Aug-18 21:33N 33°46' W 118°14'0 0.0
2014-Aug-18 20:30N 33°46' W 118°14'0 0.0
2014-Aug-18 19:33N 33°46' W 118°14'0 0.0
2014-Aug-18 17:21N 33°46' W 118°14'0 0.0
2014-Aug-18 16:30N 33°46' W 118°14'0 0.0
2014-Aug-18 15:27N 33°46' W 118°14'0 0.0
2014-Aug-18 12:30N 33°46' W 118°14'1 1.3
2014-Aug-18 11:33N 33°45' W 118°13'6 6.5
2014-Aug-18 10:33N 33°39' W 118°11'6 5.9
2014-Aug-18 09:33N 33°36' W 118°17'7 6.6
2014-Aug-18 08:33N 33°37' W 118°24'7 6.8
2014-Aug-18 07:33N 33°41' W 118°31'6 6.5
2014-Aug-18 06:33N 33°44' W 118°38'7 6.7
2014-Aug-18 05:33N 33°47' W 118°45'7 6.8
2014-Aug-18 04:33N 33°51' W 118°52'7 7.0
2014-Aug-18 03:33N 33°54' W 118°60'7 6.8
2014-Aug-18 02:33N 33°57' W 119°07'4 3.9
2014-Aug-18 01:33N 33°58' W 119°12'1 1.3
2014-Aug-18 00:33N 33°59' W 119°12'34 5.7
2014-Aug-17 18:33N 34°10' W 119°51'7 6.7
2014-Aug-17 17:33N 34°12' W 119°59'7 6.8
2014-Aug-17 16:33N 34°14' W 120°07'7 6.8
2014-Aug-17 15:33N 34°16' W 120°15'7 6.8
2014-Aug-17 14:33N 34°17' W 120°23'7 6.8
2014-Aug-17 13:33N 34°19' W 120°30'7 6.7
2014-Aug-17 12:30N 34°21' W 120°39'6 6.4
2014-Aug-17 11:33N 34°23' W 120°46'6 6.4
2014-Aug-17 10:33N 34°24' W 120°53'6 6.5
2014-Aug-17 09:33N 34°26' W 121°01'7 6.7
2014-Aug-17 08:33N 34°28' W 121°09'1211.6
2014-Aug-17 07:33N 34°38' W 121°15'1313.2
2014-Aug-17 06:33N 34°50' W 121°22'3 2.8
2014-Aug-17 05:33N 34°52' W 121°23'1 0.9
2014-Aug-17 04:33N 34°53' W 121°24'1 0.8
2014-Aug-17 03:33N 34°53' W 121°25'1 0.7
2014-Aug-17 02:33N 34°53' W 121°26'1 0.8
2014-Aug-17 01:33N 34°53' W 121°27'1 0.8
2014-Aug-17 00:33N 34°53' W 121°28'1 0.8
2014-Aug-16 23:33N 34°53' W 121°29'0 0.5
2014-Aug-16 22:33N 34°53' W 121°29'1 0.7
2014-Aug-16 21:34N 34°53' W 121°30'0 0.4
2014-Aug-16 20:33N 34°53' W 121°31'1 0.6
2014-Aug-16 19:22N 34°53' W 121°30'1011.9
2014-Aug-16 18:33N 35°01' W 121°37'1716.9
2014-Aug-16 17:33N 35°15' W 121°49'1716.7
2014-Aug-16 16:33N 35°29' W 121°60'1716.8
2014-Aug-16 15:33N 35°43' W 122°12'1717.1
2014-Aug-16 14:33N 35°57' W 122°24'1717.2
2014-Aug-16 13:33N 36°12' W 122°34'1716.8
2014-Aug-16 12:33N 36°27' W 122°44'1716.8
2014-Aug-16 11:33N 36°41' W 122°54'1716.8
2014-Aug-16 10:33N 36°56' W 123°04'1615.7
2014-Aug-16 09:33N 37°11' W 123°10'8 8.2
2014-Aug-16 08:33N 37°19' W 123°11'6 5.8
2014-Aug-16 07:33N 37°25' W 123°12'6 5.7
2014-Aug-16 06:33N 37°30' W 123°08'6 6.4
2014-Aug-16 05:33N 37°35' W 123°02'6 6.5
2014-Aug-16 04:34N 37°38' W 122°56'7 6.8
2014-Aug-16 03:33N 37°42' W 122°49'7 6.6
2014-Aug-16 02:33N 37°46' W 122°42'1111.0
2014-Aug-16 01:33N 37°49' W 122°29'8 7.5
2014-Aug-16 00:33N 37°49' W 122°19'0 0.0
2014-Aug-15 23:29N 37°49' W 122°19'0 0.0
2014-Aug-15 22:32N 37°49' W 122°19'0 0.0
2014-Aug-15 21:32N 37°49' W 122°19'0 0.0
2014-Aug-15 20:32N 37°49' W 122°19'0 0.0
2014-Aug-15 19:32N 37°49' W 122°19'0 0.0
2014-Aug-15 18:32N 37°49' W 122°19'0 0.0
2014-Aug-15 17:32N 37°49' W 122°19'0 0.0
2014-Aug-15 16:32N 37°49' W 122°19'0 0.0
2014-Aug-15 15:32N 37°49' W 122°19'0 0.0
2014-Aug-15 14:32N 37°49' W 122°19'0 0.0
2014-Aug-15 13:32N 37°49' W 122°19'0 0.0
2014-Aug-15 12:33N 37°49' W 122°19'10 9.7
2014-Aug-15 11:33N 37°48' W 122°31'1111.3
2014-Aug-15 10:33N 37°43' W 122°44'7 6.7
2014-Aug-15 09:33N 37°39' W 122°51'6 6.5
2014-Aug-15 08:33N 37°35' W 122°58'6 6.1
2014-Aug-15 07:33N 37°32' W 123°04'6 6.3
2014-Aug-15 06:33N 37°28' W 123°11'6 6.1
2014-Aug-15 05:33N 37°25' W 123°17'4 3.5
2014-Aug-15 04:33N 37°23' W 123°21'1 0.7
2014-Aug-15 03:33N 37°23' W 123°21'7 6.8
2014-Aug-15 02:34N 37°27' W 123°28'1714.5
2014-Aug-15 01:22N 37°41' W 123°41'1417.4
2014-Aug-15 00:33N 37°54' W 123°48'1716.8
2014-Aug-14 23:33N 38°10' W 123°55'1716.5
2014-Aug-14 22:33N 38°25' W 124°03'1716.5
2014-Aug-14 21:33N 38°41' W 124°11'41916.6
2014-Aug-13 20:22N 45°37' W 125°18'1316.6
2014-Aug-13 19:33N 45°50' W 125°17'1616.3
2014-Aug-13 18:34N 46°07' W 125°19'1616.4
2014-Aug-13 17:33N 46°23' W 125°20'1717.1
2014-Aug-13 16:33N 46°40' W 125°21'1717.0
2014-Aug-13 15:33N 46°57' W 125°22'5116.9
2014-Aug-13 12:33N 47°48' W 125°25'1816.0
2014-Aug-13 11:24N 48°06' W 125°22'1315.6
2014-Aug-13 10:33N 48°17' W 125°12'1515.3
2014-Aug-13 09:33N 48°30' W 124°60'1616.0
2014-Aug-13 08:34N 48°28' W 124°36'1717.1
2014-Aug-13 07:34N 48°22' W 124°12'1817.6
2014-Aug-13 06:33N 48°17' W 123°47'1716.9
2014-Aug-13 05:33N 48°10' W 123°23'1615.4
2014-Aug-13 04:32N 48°12' W 123°00'1919.5
2014-Aug-13 03:34N 48°01' W 122°37'2019.8
2014-Aug-13 02:34N 47°42' W 122°27'8 7.9
2014-Aug-13 01:32N 47°36' W 122°21'0 0.0
2014-Aug-13 00:32N 47°36' W 122°21'0 0.0
2014-Aug-12 23:29N 47°36' W 122°21'0 0.0
2014-Aug-12 22:29N 47°36' W 122°21'0 0.0
2014-Aug-12 21:29N 47°36' W 122°21'0 0.0
2014-Aug-12 20:29N 47°36' W 122°21'0 0.0
2014-Aug-12 19:32N 47°36' W 122°21'0 0.0
2014-Aug-12 18:32N 47°36' W 122°21'0 0.0
2014-Aug-12 15:17N 47°36' W 122°21'0 0.0
2014-Aug-12 14:14N 47°36' W 122°21'0 0.0
2014-Aug-12 13:17N 47°36' W 122°21'0 0.0
2014-Aug-12 12:29N 47°36' W 122°21'0 0.0
2014-Aug-12 10:32N 47°36' W 122°21'0 0.0
2014-Aug-12 09:26N 47°36' W 122°21'1 1.3
2014-Aug-12 08:34N 47°36' W 122°22'1212.1
2014-Aug-12 07:33N 47°47' W 122°27'1918.5
2014-Aug-12 06:33N 48°04' W 122°39'1716.7
2014-Aug-12 05:33N 48°12' W 123°02'1615.5
2014-Aug-12 04:33N 48°10' W 123°25'1111.5
2014-Aug-12 03:33N 48°22' W 123°25'1111.3
2014-Aug-12 02:34N 48°29' W 123°13'1615.7
2014-Aug-12 01:34N 48°44' W 123°07'1414.4
2014-Aug-12 00:33N 48°59' W 123°10'3 2.5
2014-Aug-11 23:31N 49°01' W 123°09'0 0.0
2014-Aug-11 22:31N 49°01' W 123°09'0 0.0
2014-Aug-11 21:28N 49°01' W 123°09'0 0.0
2014-Aug-11 20:31N 49°01' W 123°09'0 0.0
2014-Aug-11 19:31N 49°01' W 123°09'0 0.0
2014-Aug-11 18:31N 49°01' W 123°09'0 0.0
2014-Aug-11 17:31N 49°01' W 123°09'0 0.0
2014-Aug-11 16:31N 49°01' W 123°09'0 0.0
2014-Aug-11 15:31N 49°01' W 123°09'0 0.0
2014-Aug-11 14:31N 49°01' W 123°09'0 0.0
2014-Aug-11 13:31N 49°01' W 123°09'0 0.0
2014-Aug-11 12:31N 49°01' W 123°09'0 0.0
2014-Aug-11 11:31N 49°01' W 123°09'0 0.0
2014-Aug-11 10:31N 49°01' W 123°09'0 0.0
2014-Aug-11 09:31N 49°01' W 123°09'0 0.0
2014-Aug-11 08:31N 49°01' W 123°09'0 0.0
2014-Aug-11 07:33N 49°01' W 123°09'1 0.7
2014-Aug-11 06:33N 49°01' W 123°09'1111.2
2014-Aug-11 05:33N 48°51' W 123°02'1515.3
2014-Aug-11 04:34N 48°37' W 123°14'1615.7
2014-Aug-11 03:33N 48°22' W 123°18'7 7.3
2014-Aug-11 02:33N 48°17' W 123°26'8 8.1
2014-Aug-11 01:33N 48°13' W 123°37'1615.8
2014-Aug-11 00:33N 48°15' W 124°01'1717.3
2014-Aug-10 23:33N 48°23' W 124°24'1716.9
2014-Aug-10 22:33N 48°29' W 124°48'1515.1
2014-Aug-10 21:34N 48°19' W 125°06'1312.9
2014-Aug-10 20:33N 48°08' W 125°15'1616.4
2014-Aug-10 19:33N 47°53' W 125°25'1716.7
2014-Aug-10 18:33N 47°36' W 125°24'4916.1
2014-Aug-10 15:32N 46°48' W 125°22'  
Track history (hours):
 
Tides and Currents Weather Stations Pressure Air Temp Water Temp Dewpoint Dewpoint Depression Visibility Wind Speed Wind Dir Waves Ship Positions

MSC Leanne

Last reported at 2014-Aug-19 11:10 UTC. Time now 2014-Aug-22 03:56 UTC.
Position N 31°25' W 117°24'.

Length 294 m; draft 11.7 m.

Type: Ship (hazmat cat A). MMSI: 357723000.

Date/timePositionNaut miles runAvg speedWind from/ knotsBaromVisibWave heightAir tempDewpointWater temp
2014-Aug-19 11:10N 31°25' W 117°24'1016.7
2014-Aug-19 10:33N 31°35' W 117°27'1816.7
2014-Aug-19 09:30N 31°52' W 117°33'1616.9
2014-Aug-19 08:33N 32°07' W 117°38'1716.7
2014-Aug-19 07:33N 32°23' W 117°44'1716.9
2014-Aug-19 06:33N 32°40' W 117°46'1716.7
2014-Aug-19 05:33N 32°56' W 117°49'1413.6
2014-Aug-19 04:33N 33°08' W 117°57'1110.6
2014-Aug-19 03:33N 33°16' W 118°04'1110.8
2014-Aug-19 02:33N 33°26' W 118°09'1110.5
2014-Aug-19 01:33N 33°37' W 118°13'8 8.4
2014-Aug-19 00:33N 33°45' W 118°13'1 1.3
2014-Aug-18 23:27N 33°46' W 118°14'0 0.0
2014-Aug-18 22:30N 33°46' W 118°14'0 0.0
2014-Aug-18 21:33N 33°46' W 118°14'0 0.0
2014-Aug-18 20:30N 33°46' W 118°14'0 0.0
2014-Aug-18 19:33N 33°46' W 118°14'0 0.0
2014-Aug-18 17:21N 33°46' W 118°14'0 0.0
2014-Aug-18 16:30N 33°46' W 118°14'0 0.0
2014-Aug-18 15:27N 33°46' W 118°14'0 0.0
2014-Aug-18 12:30N 33°46' W 118°14'1 1.3
2014-Aug-18 11:33N 33°45' W 118°13'6 6.5
2014-Aug-18 10:33N 33°39' W 118°11'6 5.9
2014-Aug-18 09:33N 33°36' W 118°17'7 6.6
2014-Aug-18 08:33N 33°37' W 118°24'7 6.8
2014-Aug-18 07:33N 33°41' W 118°31'6 6.5
2014-Aug-18 06:33N 33°44' W 118°38'7 6.7
2014-Aug-18 05:33N 33°47' W 118°45'7 6.8
2014-Aug-18 04:33N 33°51' W 118°52'7 7.0
2014-Aug-18 03:33N 33°54' W 118°60'7 6.8
2014-Aug-18 02:33N 33°57' W 119°07'4 3.9
2014-Aug-18 01:33N 33°58' W 119°12'1 1.3
2014-Aug-18 00:33N 33°59' W 119°12'34 5.7
2014-Aug-17 18:33N 34°10' W 119°51'7 6.7
2014-Aug-17 17:33N 34°12' W 119°59'7 6.8
2014-Aug-17 16:33N 34°14' W 120°07'7 6.8
2014-Aug-17 15:33N 34°16' W 120°15'7 6.8
2014-Aug-17 14:33N 34°17' W 120°23'7 6.8
2014-Aug-17 13:33N 34°19' W 120°30'7 6.7
2014-Aug-17 12:30N 34°21' W 120°39'6 6.4
2014-Aug-17 11:33N 34°23' W 120°46'6 6.4
2014-Aug-17 10:33N 34°24' W 120°53'6 6.5
2014-Aug-17 09:33N 34°26' W 121°01'7 6.7
2014-Aug-17 08:33N 34°28' W 121°09'1211.6
2014-Aug-17 07:33N 34°38' W 121°15'1313.2
2014-Aug-17 06:33N 34°50' W 121°22'3 2.8
2014-Aug-17 05:33N 34°52' W 121°23'1 0.9
2014-Aug-17 04:33N 34°53' W 121°24'1 0.8
2014-Aug-17 03:33N 34°53' W 121°25'1 0.7
2014-Aug-17 02:33N 34°53' W 121°26'1 0.8
2014-Aug-17 01:33N 34°53' W 121°27'1 0.8
2014-Aug-17 00:33N 34°53' W 121°28'1 0.8
2014-Aug-16 23:33N 34°53' W 121°29'0 0.5
2014-Aug-16 22:33N 34°53' W 121°29'1 0.7
2014-Aug-16 21:34N 34°53' W 121°30'0 0.4
2014-Aug-16 20:33N 34°53' W 121°31'1 0.6
2014-Aug-16 19:22N 34°53' W 121°30'1011.9
2014-Aug-16 18:33N 35°01' W 121°37'1716.9
2014-Aug-16 17:33N 35°15' W 121°49'1716.7
2014-Aug-16 16:33N 35°29' W 121°60'1716.8
2014-Aug-16 15:33N 35°43' W 122°12'1717.1
2014-Aug-16 14:33N 35°57' W 122°24'1717.2
2014-Aug-16 13:33N 36°12' W 122°34'1716.8
2014-Aug-16 12:33N 36°27' W 122°44'1716.8
2014-Aug-16 11:33N 36°41' W 122°54'1716.8
2014-Aug-16 10:33N 36°56' W 123°04'1615.7
2014-Aug-16 09:33N 37°11' W 123°10'8 8.2
2014-Aug-16 08:33N 37°19' W 123°11'6 5.8
2014-Aug-16 07:33N 37°25' W 123°12'6 5.7
2014-Aug-16 06:33N 37°30' W 123°08'6 6.4
2014-Aug-16 05:33N 37°35' W 123°02'6 6.5
2014-Aug-16 04:34N 37°38' W 122°56'7 6.8
2014-Aug-16 03:33N 37°42' W 122°49'7 6.6
2014-Aug-16 02:33N 37°46' W 122°42'1111.0
2014-Aug-16 01:33N 37°49' W 122°29'8 7.5
2014-Aug-16 00:33N 37°49' W 122°19'0 0.0
2014-Aug-15 23:29N 37°49' W 122°19'0 0.0
2014-Aug-15 22:32N 37°49' W 122°19'0 0.0
2014-Aug-15 21:32N 37°49' W 122°19'0 0.0
2014-Aug-15 20:32N 37°49' W 122°19'0 0.0
2014-Aug-15 19:32N 37°49' W 122°19'0 0.0
2014-Aug-15 18:32N 37°49' W 122°19'0 0.0
2014-Aug-15 17:32N 37°49' W 122°19'0 0.0
2014-Aug-15 16:32N 37°49' W 122°19'0 0.0
2014-Aug-15 15:32N 37°49' W 122°19'0 0.0
2014-Aug-15 14:32N 37°49' W 122°19'0 0.0
2014-Aug-15 13:32N 37°49' W 122°19'0 0.0
2014-Aug-15 12:33N 37°49' W 122°19'10 9.7
2014-Aug-15 11:33N 37°48' W 122°31'1111.3
2014-Aug-15 10:33N 37°43' W 122°44'7 6.7
2014-Aug-15 09:33N 37°39' W 122°51'6 6.5
2014-Aug-15 08:33N 37°35' W 122°58'6 6.1
2014-Aug-15 07:33N 37°32' W 123°04'6 6.3
2014-Aug-15 06:33N 37°28' W 123°11'6 6.1
2014-Aug-15 05:33N 37°25' W 123°17'4 3.5
2014-Aug-15 04:33N 37°23' W 123°21'1 0.7
2014-Aug-15 03:33N 37°23' W 123°21'7 6.8
2014-Aug-15 02:34N 37°27' W 123°28'1714.5
2014-Aug-15 01:22N 37°41' W 123°41'1417.4
2014-Aug-15 00:33N 37°54' W 123°48'1716.8
2014-Aug-14 23:33N 38°10' W 123°55'1716.5
2014-Aug-14 22:33N 38°25' W 124°03'1716.5
2014-Aug-14 21:33N 38°41' W 124°11'41916.6
2014-Aug-13 20:22N 45°37' W 125°18'1316.6
2014-Aug-13 19:33N 45°50' W 125°17'1616.3
2014-Aug-13 18:34N 46°07' W 125°19'1616.4
2014-Aug-13 17:33N 46°23' W 125°20'1717.1
2014-Aug-13 16:33N 46°40' W 125°21'1717.0
2014-Aug-13 15:33N 46°57' W 125°22'5116.9
2014-Aug-13 12:33N 47°48' W 125°25'1816.0
2014-Aug-13 11:24N 48°06' W 125°22'1315.6
2014-Aug-13 10:33N 48°17' W 125°12'1515.3
2014-Aug-13 09:33N 48°30' W 124°60'1616.0
2014-Aug-13 08:34N 48°28' W 124°36'1717.1
2014-Aug-13 07:34N 48°22' W 124°12'1817.6
2014-Aug-13 06:33N 48°17' W 123°47'1716.9
2014-Aug-13 05:33N 48°10' W 123°23'1615.4
2014-Aug-13 04:32N 48°12' W 123°00'1919.5
2014-Aug-13 03:34N 48°01' W 122°37'2019.8
2014-Aug-13 02:34N 47°42' W 122°27'8 7.9
2014-Aug-13 01:32N 47°36' W 122°21'0 0.0
2014-Aug-13 00:32N 47°36' W 122°21'0 0.0
2014-Aug-12 23:29N 47°36' W 122°21'0 0.0
2014-Aug-12 22:29N 47°36' W 122°21'0 0.0
2014-Aug-12 21:29N 47°36' W 122°21'0 0.0
2014-Aug-12 20:29N 47°36' W 122°21'0 0.0
2014-Aug-12 19:32N 47°36' W 122°21'0 0.0
2014-Aug-12 18:32N 47°36' W 122°21'0 0.0
2014-Aug-12 15:17N 47°36' W 122°21'0 0.0
2014-Aug-12 14:14N 47°36' W 122°21'0 0.0
2014-Aug-12 13:17N 47°36' W 122°21'0 0.0
2014-Aug-12 12:29N 47°36' W 122°21'0 0.0
2014-Aug-12 10:32N 47°36' W 122°21'0 0.0
2014-Aug-12 09:26N 47°36' W 122°21'1 1.3
2014-Aug-12 08:34N 47°36' W 122°22'1212.1
2014-Aug-12 07:33N 47°47' W 122°27'1918.5
2014-Aug-12 06:33N 48°04' W 122°39'1716.7
2014-Aug-12 05:33N 48°12' W 123°02'1615.5
2014-Aug-12 04:33N 48°10' W 123°25'1111.5
2014-Aug-12 03:33N 48°22' W 123°25'1111.3
2014-Aug-12 02:34N 48°29' W 123°13'1615.7
2014-Aug-12 01:34N 48°44' W 123°07'1414.4
2014-Aug-12 00:33N 48°59' W 123°10'3 2.5
2014-Aug-11 23:31N 49°01' W 123°09'0 0.0
2014-Aug-11 22:31N 49°01' W 123°09'0 0.0
2014-Aug-11 21:28N 49°01' W 123°09'0 0.0
2014-Aug-11 20:31N 49°01' W 123°09'0 0.0
2014-Aug-11 19:31N 49°01' W 123°09'0 0.0
2014-Aug-11 18:31N 49°01' W 123°09'0 0.0
2014-Aug-11 17:31N 49°01' W 123°09'0 0.0
2014-Aug-11 16:31N 49°01' W 123°09'0 0.0
2014-Aug-11 15:31N 49°01' W 123°09'0 0.0
2014-Aug-11 14:31N 49°01' W 123°09'0 0.0
2014-Aug-11 13:31N 49°01' W 123°09'0 0.0
2014-Aug-11 12:31N 49°01' W 123°09'0 0.0
2014-Aug-11 11:31N 49°01' W 123°09'0 0.0
2014-Aug-11 10:31N 49°01' W 123°09'0 0.0
2014-Aug-11 09:31N 49°01' W 123°09'0 0.0
2014-Aug-11 08:31N 49°01' W 123°09'0 0.0
2014-Aug-11 07:33N 49°01' W 123°09'1 0.7
2014-Aug-11 06:33N 49°01' W 123°09'1111.2
2014-Aug-11 05:33N 48°51' W 123°02'1515.3
2014-Aug-11 04:34N 48°37' W 123°14'1615.7
2014-Aug-11 03:33N 48°22' W 123°18'7 7.3
2014-Aug-11 02:33N 48°17' W 123°26'8 8.1
2014-Aug-11 01:33N 48°13' W 123°37'1615.8
2014-Aug-11 00:33N 48°15' W 124°01'1717.3
2014-Aug-10 23:33N 48°23' W 124°24'1716.9
2014-Aug-10 22:33N 48°29' W 124°48'1515.1
2014-Aug-10 21:34N 48°19' W 125°06'1312.9
2014-Aug-10 20:33N 48°08' W 125°15'1616.4
2014-Aug-10 19:33N 47°53' W 125°25'1716.7
2014-Aug-10 18:33N 47°36' W 125°24'4916.1
2014-Aug-10 15:32N 46°48' W 125°22'  

Dump ship's entire track history